createdAt,value
2022-09-04T00:00:10.863Z,95980.55
2022-09-04T00:03:10.934Z,95972.55
2022-09-04T00:05:45.873Z,95974.09
2022-09-04T00:08:25.964Z,95974.52
2022-09-04T00:11:33.271Z,95976.91
2022-09-04T00:14:14.831Z,95977.95
2022-09-04T00:16:55.169Z,95976.73
2022-09-04T00:19:56.522Z,95976.71
2022-09-04T00:22:43.471Z,95976.86
2022-09-04T00:25:50.835Z,95981.76
2022-09-04T00:28:50.992Z,95975.42
2022-09-04T00:31:38.984Z,95976.11
2022-09-04T00:34:19.875Z,95970.55
2022-09-04T00:36:52.887Z,95974.14
2022-09-04T00:39:34.671Z,95971.40
2022-09-04T00:42:08.713Z,95976.05
2022-09-04T00:45:14.606Z,95980.16
2022-09-04T00:47:51.673Z,95982.95
2022-09-04T00:50:23.307Z,95987.61
2022-09-04T00:52:58.500Z,95989.13
2022-09-04T00:55:55.158Z,95990.22
2022-09-04T00:58:42.482Z,95991.90
2022-09-04T01:01:20.433Z,95994.25
2022-09-04T01:04:26.189Z,95998.05
2022-09-04T01:07:24.090Z,96000.22
2022-09-04T01:09:52.214Z,96000.73
2022-09-04T01:12:42.625Z,96000.68
2022-09-04T01:15:14.861Z,96004.89
2022-09-04T01:18:08.351Z,96003.33
2022-09-04T01:20:42.445Z,96008.80
2022-09-04T01:23:10.956Z,96008.49
2022-09-04T01:26:14.434Z,96010.67
2022-09-04T01:29:12.945Z,96011.69
2022-09-04T01:32:02.298Z,96011.39
2022-09-04T01:34:45.931Z,96011.19
2022-09-04T01:38:01.727Z,96012.71
2022-09-04T01:40:36.303Z,96010.38
2022-09-04T01:43:11.434Z,96009.42
2022-09-04T01:45:51.084Z,96007.49
2022-09-04T01:48:29.372Z,96006.69
2022-09-04T01:51:07.267Z,96008.35
2022-09-04T01:53:40.344Z,96008.91
2022-09-04T01:56:40.418Z,96007.25
2022-09-04T01:59:19.398Z,96006.57
2022-09-04T02:02:15.488Z,96005.19
2022-09-04T02:04:50.182Z,96004.17
2022-09-04T02:07:43.092Z,96005.23
2022-09-04T02:10:36.618Z,96003.00
2022-09-04T02:13:08.181Z,96001.70
2022-09-04T02:15:39.487Z,96003.88
2022-09-04T02:18:20.069Z,96002.48
2022-09-04T02:20:57.035Z,95997.91
2022-09-04T02:23:54.406Z,95996.41
2022-09-04T02:26:47.544Z,95995.83
2022-09-04T02:29:23.562Z,95996.38
2022-09-04T02:32:09.751Z,95995.98
2022-09-04T02:34:49.561Z,96000.61
2022-09-04T02:37:34.230Z,95998.69
2022-09-04T02:40:14.688Z,95998.52
2022-09-04T02:42:52.112Z,95999.33
2022-09-04T02:45:45.139Z,96001.34
2022-09-04T02:48:16.219Z,96002.20
2022-09-04T02:51:13.863Z,96001.86
2022-09-04T02:54:07.021Z,96004.21
2022-09-04T02:57:24.682Z,96006.14
2022-09-04T03:00:04.764Z,96009.38
2022-09-04T03:02:43.932Z,96005.48
2022-09-04T03:05:25.859Z,96009.71
2022-09-04T03:08:15.796Z,96009.88
2022-09-04T03:10:59.564Z,96010.23
2022-09-04T03:13:37.059Z,96010.12
2022-09-04T03:16:43.868Z,96012.31
2022-09-04T03:19:28.739Z,96013.27
2022-09-04T03:22:11.220Z,96015.26
2022-09-04T03:24:45.474Z,96017.31
2022-09-04T03:27:17.029Z,96024.18
2022-09-04T03:30:12.946Z,96022.54
2022-09-04T03:33:05.469Z,96023.20
2022-09-04T03:35:59.755Z,96024.23
2022-09-04T03:38:43.027Z,96028.35
2022-09-04T03:41:48.334Z,96029.48
2022-09-04T03:44:23.314Z,96029.30
2022-09-04T03:47:16.385Z,96027.43
2022-09-04T03:49:44.604Z,96028.56
2022-09-04T03:52:25.022Z,96027.42
2022-09-04T03:55:38.813Z,96028.33
2022-09-04T03:58:38.274Z,96030.95
2022-09-04T04:01:30.999Z,96034.61
2022-09-04T04:04:17.228Z,96035.24
2022-09-04T04:06:48.324Z,96035.32
2022-09-04T04:09:35.129Z,96035.48
2022-09-04T04:12:06.798Z,96040.98
2022-09-04T04:14:44.077Z,96041.45
2022-09-04T04:17:34.395Z,96039.27
2022-09-04T04:20:22.414Z,96046.80
2022-09-04T04:23:08.099Z,96049.20
2022-09-04T04:25:52.517Z,96049.14
2022-09-04T04:28:59.470Z,96050.02
2022-09-04T04:31:38.913Z,96050.97
2022-09-04T04:34:30.506Z,96050.13
2022-09-04T04:37:13.737Z,96050.50
2022-09-04T04:40:15.603Z,96048.56
2022-09-04T04:42:43.981Z,96055.23
2022-09-04T04:45:52.915Z,96057.09
2022-09-04T04:48:40.977Z,96055.41
2022-09-04T04:51:18.835Z,96057.08
2022-09-04T04:54:19.985Z,96060.24
2022-09-04T04:57:23.947Z,96064.56
2022-09-04T05:00:16.368Z,96070.90
2022-09-04T05:03:04.473Z,96073.13
2022-09-04T05:05:52.862Z,96069.18
2022-09-04T05:08:38.952Z,96072.79
2022-09-04T05:11:06.950Z,96068.06
2022-09-04T05:13:51.608Z,96069.06
2022-09-04T05:16:31.375Z,96070.05
2022-09-04T05:19:15.648Z,96073.88
2022-09-04T05:22:03.224Z,96073.65
2022-09-04T05:24:45.688Z,96076.13
2022-09-04T05:27:20.687Z,96076.46
2022-09-04T05:29:58.676Z,96073.98
2022-09-04T05:33:04.330Z,96078.41
2022-09-04T05:35:46.227Z,96083.42
2022-09-04T05:38:30.836Z,96082.13
2022-09-04T05:41:11.237Z,96087.49
2022-09-04T05:44:13.339Z,96085.07
2022-09-04T05:47:08.839Z,96084.18
2022-09-04T05:50:08.931Z,96084.43
2022-09-04T05:53:14.574Z,96087.56
2022-09-04T05:55:46.949Z,96089.66
2022-09-04T05:58:27.766Z,96085.69
2022-09-04T06:01:15.417Z,96086.92
2022-09-04T06:04:17.469Z,96085.39
2022-09-04T06:07:29.534Z,96081.94
2022-09-04T06:09:57.853Z,96082.69
2022-09-04T06:12:35.043Z,96080.83
2022-09-04T06:15:28.636Z,96079.05
2022-09-04T06:18:28.841Z,96081.45
2022-09-04T06:21:15.166Z,96080.55
2022-09-04T06:24:40.854Z,96082.11
2022-09-04T06:27:37.100Z,96078.58
2022-09-04T06:30:14.189Z,96078.96
2022-09-04T06:33:14.035Z,96079.02
2022-09-04T06:35:48.221Z,96084.48
2022-09-04T06:38:48.858Z,96087.93
2022-09-04T06:41:33.008Z,96093.51
2022-09-04T06:44:10.446Z,96095.33
2022-09-04T06:47:07.820Z,96090.46
2022-09-04T06:49:58.488Z,96091.64
2022-09-04T06:52:53.163Z,96088.36
2022-09-04T06:55:39.081Z,96092.47
2022-09-04T06:58:10.325Z,96092.95
2022-09-04T07:00:53.579Z,96091.39
2022-09-04T07:03:31.025Z,96091.11
2022-09-04T07:05:59.200Z,96088.98
2022-09-04T07:08:45.340Z,96093.82
2022-09-04T07:11:43.681Z,96094.41
2022-09-04T07:14:35.558Z,96096.62
2022-09-04T07:17:16.003Z,96098.23
2022-09-04T07:20:22.862Z,96099.74
2022-09-04T07:23:23.753Z,96100.06
2022-09-04T07:26:03.566Z,96104.58
2022-09-04T07:29:16.839Z,96104.80
2022-09-04T07:32:05.549Z,96108.36
2022-09-04T07:34:51.899Z,96108.73
2022-09-04T07:37:36.752Z,96110.14
2022-09-04T07:40:30.797Z,96109.16
2022-09-04T07:43:06.365Z,96107.98
2022-09-04T07:45:48.908Z,96111.58
2022-09-04T07:48:28.730Z,96111.10
2022-09-04T07:51:10.412Z,96112.35
2022-09-04T07:54:11.597Z,96116.38
2022-09-04T07:57:03.811Z,96117.67
2022-09-04T07:59:39.536Z,96119.30
2022-09-04T08:02:22.771Z,96123.43
2022-09-04T08:05:03.060Z,96121.64
2022-09-04T08:07:34.613Z,96124.77
2022-09-04T08:10:20.886Z,96124.36
2022-09-04T08:12:57.793Z,96127.64
2022-09-04T08:15:43.479Z,96131.23
2022-09-04T08:18:30.700Z,96132.32
2022-09-04T08:21:10.013Z,96131.34
2022-09-04T08:23:59.306Z,96128.58
2022-09-04T08:27:10.983Z,96131.91
2022-09-04T08:29:45.799Z,96131.63
2022-09-04T08:32:38.338Z,96128.65
2022-09-04T08:35:29.484Z,96133.48
2022-09-04T08:38:33.615Z,96132.23
2022-09-04T08:41:07.195Z,96136.31
2022-09-04T08:43:44.512Z,96136.66
2022-09-04T08:46:55.180Z,96137.77
2022-09-04T08:49:48.011Z,96138.49
2022-09-04T08:52:54.003Z,96133.34
2022-09-04T08:55:56.211Z,96130.46
2022-09-04T08:58:49.417Z,96129.19
2022-09-04T09:01:26.461Z,96125.96
2022-09-04T09:04:32.202Z,96126.91
2022-09-04T09:07:09.543Z,96125.52
2022-09-04T09:09:38.024Z,96123.34
2022-09-04T09:12:27.706Z,96127.13
2022-09-04T09:15:24.679Z,96126.20
2022-09-04T09:18:02.598Z,96124.50
2022-09-04T09:20:46.220Z,96127.23
2022-09-04T09:23:18.497Z,96124.70
2022-09-04T09:26:06.462Z,96122.95
2022-09-04T09:28:56.521Z,96127.34
2022-09-04T09:31:39.831Z,96124.25
2022-09-04T09:34:43.350Z,96123.92
2022-09-04T09:37:34.346Z,96128.35
2022-09-04T09:40:02.451Z,96129.55
2022-09-04T09:42:31.211Z,96128.45
2022-09-04T09:45:14.734Z,96130.80
2022-09-04T09:48:06.073Z,96125.95
2022-09-04T09:50:49.401Z,96127.73
2022-09-04T09:53:55.463Z,96129.89
2022-09-04T09:56:55.813Z,96127.83
2022-09-04T09:59:45.901Z,96131.54
2022-09-04T10:02:16.677Z,96132.83
2022-09-04T10:05:22.942Z,96133.38
2022-09-04T10:08:35.661Z,96131.77
2022-09-04T10:11:24.083Z,96127.29
2022-09-04T10:13:58.141Z,96123.25
2022-09-04T10:17:24.001Z,96126.98
2022-09-04T10:20:20.643Z,96127.39
2022-09-04T10:22:59.983Z,96124.52
2022-09-04T10:25:57.374Z,96123.96
2022-09-04T10:28:47.661Z,96127.57
2022-09-04T10:31:34.962Z,96126.20
2022-09-04T10:34:29.370Z,96128.85
2022-09-04T10:37:17.679Z,96128.11
2022-09-04T10:40:46.123Z,96130.42
2022-09-04T10:43:35.675Z,96122.40
2022-09-04T10:46:35.943Z,96118.50
2022-09-04T10:49:15.910Z,96115.98
2022-09-04T10:52:05.219Z,96115.84
2022-09-04T10:54:42.407Z,96111.02
2022-09-04T10:57:38.991Z,96105.98
2022-09-04T11:00:35.546Z,96113.96
2022-09-04T11:03:25.333Z,96113.45
2022-09-04T11:06:35.553Z,96119.40
2022-09-04T11:09:21.763Z,96117.27
2022-09-04T11:12:09.583Z,96116.66
2022-09-04T11:14:58.159Z,96121.08
2022-09-04T11:17:32.193Z,96124.82
2022-09-04T11:20:34.792Z,96116.89
2022-09-04T11:23:35.892Z,96118.13
2022-09-04T11:26:32.001Z,96116.19
2022-09-04T11:29:00.380Z,96112.11
2022-09-04T11:31:54.025Z,96109.99
2022-09-04T11:34:43.742Z,96108.03
2022-09-04T11:37:31.488Z,96106.06
2022-09-04T11:40:30.118Z,96107.79
2022-09-04T11:43:30.411Z,96103.83
2022-09-04T11:46:34.815Z,96105.43
2022-09-04T11:49:24.494Z,96109.83
2022-09-04T11:51:55.744Z,96108.86
2022-09-04T11:54:43.500Z,96112.23
2022-09-04T11:57:30.704Z,96113.26
2022-09-04T12:00:11.928Z,96108.66
2022-09-04T12:03:08.170Z,96101.92
2022-09-04T12:06:02.941Z,96101.27
2022-09-04T12:09:07.536Z,96099.57
2022-09-04T12:11:38.442Z,96095.69
2022-09-04T12:14:22.848Z,96100.48
2022-09-04T12:17:06.470Z,96099.45
2022-09-04T12:19:58.613Z,96099.02
2022-09-04T12:22:36.505Z,96098.08
2022-09-04T12:25:10.656Z,96100.23
2022-09-04T12:27:44.637Z,96096.01
2022-09-04T12:30:15.466Z,96087.33
2022-09-04T12:33:09.111Z,96082.31
2022-09-04T12:36:15.777Z,96083.85
2022-09-04T12:39:37.423Z,96079.50
2022-09-04T12:42:14.613Z,96081.36
2022-09-04T12:44:50.132Z,96081.02
2022-09-04T12:47:35.633Z,96079.34
2022-09-04T12:50:44.494Z,96079.01
2022-09-04T12:53:33.279Z,96077.67
2022-09-04T12:56:43.022Z,96083.23
2022-09-04T12:59:38.443Z,96077.58
2022-09-04T13:02:34.412Z,96076.18
2022-09-04T13:05:17.885Z,96074.93
2022-09-04T13:07:58.900Z,96071.67
2022-09-04T13:10:41.445Z,96069.47
2022-09-04T13:13:42.303Z,96062.34
2022-09-04T13:16:29.760Z,96057.84
2022-09-04T13:19:00.705Z,96057.10
2022-09-04T13:21:41.088Z,96061.48
2022-09-04T13:24:25.503Z,96059.77
2022-09-04T13:27:21.418Z,96058.13
2022-09-04T13:30:03.803Z,96059.20
2022-09-04T13:33:00.505Z,96061.86
2022-09-04T13:35:42.732Z,96064.18
2022-09-04T13:38:41.921Z,96065.64
2022-09-04T13:41:44.703Z,96063.27
2022-09-04T13:45:02.049Z,96064.72
2022-09-04T13:47:40.669Z,96062.63
2022-09-04T13:50:25.559Z,96061.52
2022-09-04T13:52:59.949Z,96066.38
2022-09-04T13:55:54.775Z,96064.96
2022-09-04T13:58:52.102Z,96063.41
2022-09-04T14:01:25.901Z,96063.25
2022-09-04T14:04:00.361Z,96066.04
2022-09-04T14:11:12.328Z,96071.95
2022-09-04T14:13:42.077Z,96072.58
2022-09-04T14:16:15.238Z,96072.25
2022-09-04T14:19:16.137Z,96075.37
2022-09-04T14:22:08.370Z,96075.70
2022-09-04T14:25:00.392Z,96077.98
2022-09-04T14:27:48.226Z,96077.45
2022-09-04T14:30:19.091Z,96079.09
2022-09-04T14:33:06.222Z,96080.89
2022-09-04T14:35:59.976Z,96079.68
2022-09-04T14:38:49.588Z,96078.23
2022-09-04T14:41:36.346Z,96072.08
2022-09-04T14:44:27.220Z,96072.02
2022-09-04T14:47:14.230Z,96070.12
2022-09-04T14:49:47.197Z,96072.72
2022-09-04T14:52:21.753Z,96078.98
2022-09-04T14:54:59.921Z,96079.08
2022-09-04T14:57:46.919Z,96084.48
2022-09-04T15:00:17.892Z,96085.19
2022-09-04T15:02:46.034Z,96088.27
2022-09-04T15:05:26.788Z,96082.09
2022-09-04T15:08:01.536Z,96076.29
2022-09-04T15:10:30.069Z,96072.27
2022-09-04T15:13:36.213Z,96070.05
2022-09-04T15:16:09.754Z,96073.14
2022-09-04T15:18:53.938Z,96074.70
2022-09-04T15:21:41.012Z,96077.34
2022-09-04T15:24:10.916Z,96076.20
2022-09-04T15:27:05.840Z,96077.86
2022-09-04T15:30:04.298Z,96080.63
2022-09-04T15:33:19.008Z,96081.47
2022-09-04T15:36:06.875Z,96080.36
2022-09-04T15:38:36.997Z,96078.27
2022-09-04T15:41:27.443Z,96084.39
2022-09-04T15:44:27.869Z,96080.53
2022-09-04T15:47:39.796Z,96081.89
2022-09-04T15:50:20.797Z,96077.29
2022-09-04T15:52:56.245Z,96076.73
2022-09-04T15:55:32.003Z,96079.27
2022-09-04T15:58:27.106Z,96080.64
2022-09-04T16:01:08.396Z,96085.05
2022-09-04T16:04:23.473Z,96082.52
2022-09-04T16:07:05.064Z,96082.59
2022-09-04T16:09:41.935Z,96082.33
2022-09-04T16:12:15.436Z,96078.73
2022-09-04T16:14:52.188Z,96082.69
2022-09-04T16:17:32.298Z,96080.52
2022-09-04T16:20:10.010Z,96085.52
2022-09-04T16:22:47.723Z,96086.26
2022-09-04T16:25:23.551Z,96086.71
2022-09-04T16:27:57.636Z,96084.45
2022-09-04T16:30:38.526Z,96088.45
2022-09-04T16:33:27.240Z,96088.23
2022-09-04T16:36:08.913Z,96092.16
2022-09-04T16:38:47.625Z,96095.45
2022-09-04T16:41:40.883Z,96092.70
2022-09-04T16:44:25.749Z,96099.35
2022-09-04T16:47:04.743Z,96103.13
2022-09-04T16:49:39.620Z,96102.39
2022-09-04T16:52:22.057Z,96103.05
2022-09-04T16:55:12.089Z,96101.19
2022-09-04T16:57:54.103Z,96100.52
2022-09-04T17:00:24.322Z,96099.95
2022-09-04T17:02:58.916Z,96101.02
2022-09-04T17:05:36.013Z,96103.19
2022-09-04T17:08:22.234Z,96104.31
2022-09-04T17:10:58.018Z,96104.55
2022-09-04T17:13:38.069Z,96109.46
2022-09-04T17:16:17.603Z,96114.83
2022-09-04T17:18:54.781Z,96117.54
2022-09-04T17:27:13.116Z,96122.41
2022-09-04T17:29:01.442Z,96124.86
2022-09-04T17:29:08.246Z,96125.56
2022-09-04T17:31:07.492Z,96128.81
2022-09-04T17:39:03.141Z,96129.11
2022-09-04T17:40:39.728Z,96131.13
2022-09-04T17:40:56.844Z,96140.91
2022-09-04T17:43:22.438Z,96146.27
2022-09-04T17:46:13.787Z,96146.70
2022-09-04T17:48:46.412Z,96145.80
2022-09-04T17:51:24.073Z,96145.58
2022-09-04T17:54:00.646Z,96148.54
2022-09-04T17:57:01.881Z,96155.97
2022-09-04T17:59:41.407Z,96161.44
2022-09-04T18:02:28.421Z,96165.92
2022-09-04T18:05:20.940Z,96165.83
2022-09-04T18:08:09.011Z,96166.25
2022-09-04T18:10:52.585Z,96170.02
2022-09-04T18:13:40.259Z,96175.23
2022-09-04T18:16:31.279Z,96173.36
2022-09-04T18:19:17.139Z,96180.70
2022-09-04T18:22:06.433Z,96178.33
2022-09-04T18:24:48.880Z,96182.21
2022-09-04T18:27:46.158Z,96187.53
2022-09-04T18:37:09.712Z,96193.77
2022-09-04T18:37:22.456Z,96192.38
2022-09-04T18:37:25.850Z,96196.45
2022-09-04T18:39:37.852Z,96202.48
2022-09-04T18:46:06.583Z,96207.95
2022-09-04T18:50:35.126Z,96208.23
2022-09-04T18:50:36.969Z,96209.09
2022-09-04T18:51:20.306Z,96209.15
2022-09-04T18:53:57.211Z,96210.44
2022-09-04T18:56:44.742Z,96200.04
2022-09-04T18:59:18.609Z,96201.42
2022-09-04T19:02:11.990Z,96205.46
2022-09-04T19:05:11.513Z,96210.23
2022-09-04T19:07:52.025Z,96213.13
2022-09-04T19:10:28.565Z,96212.40
2022-09-04T19:13:05.472Z,96212.17
2022-09-04T19:15:54.101Z,96213.66
2022-09-04T19:18:22.481Z,96212.60
2022-09-04T19:20:58.319Z,96211.58
2022-09-04T19:24:01.231Z,96211.57
2022-09-04T19:26:55.219Z,96214.31
2022-09-04T19:29:30.044Z,96215.13
2022-09-04T19:32:24.188Z,96216.17
2022-09-04T19:35:18.968Z,96217.23
2022-09-04T19:40:44.686Z,96216.64
2022-09-04T19:45:59.126Z,96217.68
2022-09-04T19:46:13.320Z,96222.19
2022-09-04T19:47:29.469Z,96226.48
2022-09-04T19:53:21.235Z,96226.06
2022-09-04T19:53:30.877Z,96222.33
2022-09-04T19:55:55.847Z,96223.87
2022-09-04T19:58:36.309Z,96228.48
2022-09-04T20:01:17.017Z,96228.02
2022-09-04T20:03:55.560Z,96233.61
2022-09-04T20:06:32.184Z,96231.70
2022-09-04T20:09:12.734Z,96227.99
2022-09-04T20:11:47.800Z,96229.44
2022-09-04T20:14:25.776Z,96225.00
2022-09-04T20:17:02.019Z,96225.59
2022-09-04T20:19:37.648Z,96225.52
2022-09-04T20:22:32.084Z,96228.05
2022-09-04T20:25:12.341Z,96233.52
2022-09-04T20:28:18.563Z,96234.75
2022-09-04T20:31:02.556Z,96239.64
2022-09-04T20:34:15.720Z,96238.69
2022-09-04T20:36:51.292Z,96241.45
2022-09-04T20:39:26.657Z,96243.25
2022-09-04T20:42:08.580Z,96243.84
2022-09-04T20:46:13.089Z,96240.88
2022-09-04T20:52:41.117Z,96242.98
2022-09-04T20:52:57.425Z,96243.88
2022-09-04T20:53:51.494Z,96248.67
2022-09-04T20:58:13.939Z,96253.85
2022-09-04T21:03:11.656Z,96255.27
2022-09-04T21:03:32.119Z,96253.99
2022-09-04T21:06:06.919Z,96255.94
2022-09-04T21:08:45.744Z,96258.88
2022-09-04T21:11:40.720Z,96257.62
2022-09-04T21:14:20.292Z,96261.25
2022-09-04T21:17:34.579Z,96261.45
2022-09-04T21:20:41.810Z,96261.61
2022-09-04T21:23:59.630Z,96260.71
2022-09-04T21:26:46.421Z,96266.11
2022-09-04T21:29:39.574Z,96267.90
2022-09-04T21:32:08.893Z,96264.85
2022-09-04T21:35:07.348Z,96261.83
2022-09-04T21:37:57.766Z,96258.98
2022-09-04T21:40:52.751Z,96264.24
2022-09-04T21:44:12.556Z,96266.13
2022-09-04T21:46:40.941Z,96266.66
2022-09-04T21:49:30.497Z,96268.34
2022-09-04T21:52:10.959Z,96262.52
2022-09-04T21:57:02.768Z,96267.55
2022-09-04T22:02:27.649Z,96270.50
2022-09-04T22:02:45.028Z,96269.39
2022-09-04T22:04:21.648Z,96266.83
2022-09-04T22:08:52.954Z,96268.55
2022-09-04T22:13:30.995Z,96269.13
2022-09-04T22:13:50.149Z,96276.68
2022-09-04T22:16:59.681Z,96276.66
2022-09-04T22:19:46.489Z,96276.90
2022-09-04T22:22:20.514Z,96279.13
2022-09-04T22:25:14.415Z,96276.91
2022-09-04T22:28:15.325Z,96277.11
2022-09-04T22:30:55.586Z,96276.36
2022-09-04T22:34:14.972Z,96276.73
2022-09-04T22:37:15.397Z,96277.92
2022-09-04T22:40:12.762Z,96277.79
2022-09-04T22:43:16.874Z,96275.54
2022-09-04T22:45:53.996Z,96277.81
2022-09-04T22:48:41.180Z,96275.36
2022-09-04T22:51:09.458Z,96275.68
2022-09-04T22:54:20.848Z,96271.71
2022-09-04T22:57:11.264Z,96274.14
2022-09-04T23:00:04.245Z,96280.23
2022-09-04T23:03:09.760Z,96274.94
2022-09-04T23:08:24.612Z,96278.59
2022-09-04T23:13:44.685Z,96280.56
2022-09-04T23:13:52.185Z,96274.02
2022-09-04T23:15:40.548Z,96272.92
2022-09-04T23:21:34.050Z,96274.35
2022-09-04T23:26:34.533Z,96277.67
2022-09-04T23:26:48.653Z,96276.83
2022-09-04T23:28:30.527Z,96275.95
2022-09-04T23:31:39.198Z,96274.23
2022-09-04T23:35:13.571Z,96273.16
2022-09-04T23:38:35.259Z,96272.69
2022-09-04T23:41:52.908Z,96270.48
2022-09-04T23:44:42.276Z,96267.41
2022-09-04T23:47:48.793Z,96266.51
2022-09-04T23:51:08.172Z,96261.46
2022-09-04T23:54:28.569Z,96261.36
2022-09-04T23:57:25.905Z,96262.85
